Time;durP1;ratioP1;P1;durP2;ratioP2;P2;SDS_P1;SDS_P2;PMS_P1;PMS_P2;Temp;Humidity;BMP_temperature;BMP_pressure;BME280_temperature;BME280_humidity;BME280_pressure;Samples;Min_cycle;Max_cycle;Signal;HPM_P1;HPM_P2
2021/12/30 00:00:29;;;;;;;59.92;21.20;;;;;;;9.75;100.00;101096.75;5033379;28;20032;-86
2021/12/30 00:02:54;;;;;;;59.92;20.73;;;;;;;9.58;100.00;101065.06;5032959;28;20025;-85
2021/12/30 00:05:20;;;;;;;48.13;20.00;;;;;;;9.83;100.00;101101.44;5033188;28;20104;-85
2021/12/30 00:07:46;;;;;;;48.95;21.23;;;;;;;9.72;100.00;101091.72;5032978;28;20029;-82
2021/12/30 00:10:13;;;;;;;55.50;19.60;;;;;;;9.80;100.00;101101.63;5033110;28;20021;-82
2021/12/30 00:12:38;;;;;;;61.85;19.17;;;;;;;9.62;100.00;101077.69;5015468;28;20072;-85
2021/12/30 00:15:06;;;;;;;54.70;20.27;;;;;;;9.67;100.00;101090.34;5033088;28;20029;-83
2021/12/30 00:17:33;;;;;;;46.22;17.23;;;;;;;9.80;100.00;101111.09;5032920;28;20037;-75
2021/12/30 00:19:59;;;;;;;41.90;15.50;;;;;;;9.84;100.00;101112.63;5033004;28;20485;-86
2021/12/30 00:22:25;;;;;;;50.97;15.85;;;;;;;9.85;100.00;101112.53;5032781;28;20026;-85
2021/12/30 00:24:50;;;;;;;52.47;16.20;;;;;;;9.85;100.00;101106.53;5032431;28;20382;-83
2021/12/30 00:27:16;;;;;;;50.55;14.02;;;;;;;9.69;100.00;101088.50;5032750;28;20032;-88
2021/12/30 00:29:41;;;;;;;42.95;13.85;;;;;;;9.89;100.00;101115.75;5032677;28;20037;-85
2021/12/30 00:32:07;;;;;;;46.85;13.77;;;;;;;9.91;100.00;101114.75;5032599;28;20017;-81
2021/12/30 00:34:33;;;;;;;47.63;15.15;;;;;;;9.98;100.00;101120.41;5032645;28;20385;-84
2021/12/30 00:36:58;;;;;;;43.85;14.10;;;;;;;9.75;100.00;101075.28;5032882;28;20469;-87
2021/12/30 00:39:24;;;;;;;41.40;13.98;;;;;;;10.09;100.00;101119.81;5032720;28;20508;-84
2021/12/30 00:41:49;;;;;;;48.70;14.48;;;;;;;10.07;100.00;101118.16;5032810;28;20052;-84
2021/12/30 00:44:14;;;;;;;43.58;12.98;;;;;;;10.09;100.00;101124.97;5032611;28;20033;-84
2021/12/30 00:46:40;;;;;;;36.70;13.05;;;;;;;10.18;100.00;101137.34;5032471;28;20047;-77
2021/12/30 00:49:05;;;;;;;47.92;14.80;;;;;;;10.20;100.00;101136.34;5032565;28;20033;-87
2021/12/30 00:51:31;;;;;;;49.35;14.23;;;;;;;10.24;100.00;101140.47;5032534;28;20051;-82
2021/12/30 00:53:56;;;;;;;40.60;13.40;;;;;;;10.23;100.00;101138.81;5031801;28;20539;-86
2021/12/30 00:56:22;;;;;;;43.63;12.88;;;;;;;10.27;100.00;101139.47;5032589;28;20021;-84
2021/12/30 00:58:47;;;;;;;42.58;13.13;;;;;;;10.22;100.00;101129.38;5032611;28;20021;-86
2021/12/30 01:01:13;;;;;;;41.97;13.13;;;;;;;10.29;100.00;101135.03;5032611;28;20030;-84
2021/12/30 01:03:38;;;;;;;43.75;13.75;;;;;;;10.29;100.00;101129.88;5032281;28;20029;-87
2021/12/30 01:06:04;;;;;;;41.70;14.23;;;;;;;10.29;100.00;101140.19;5032483;28;20159;-84
2021/12/30 01:08:29;;;;;;;41.85;13.35;;;;;;;10.16;100.00;101111.66;5032595;28;20033;-85
2021/12/30 01:10:55;;;;;;;46.83;15.25;;;;;;;10.15;100.00;101112.56;5032228;28;20025;-86
2021/12/30 01:13:25;;;;;;;51.00;14.60;;;;;;;10.20;100.00;101122.63;5032354;28;20029;-84
2021/12/30 01:16:01;;;;;;;42.70;13.38;;;;;;;10.19;100.00;101116.63;5032520;28;20230;-87
2021/12/30 01:21:01;;;;;;;39.83;12.40;;;;;;;10.23;100.00;101125.91;5032573;28;20042;-87
2021/12/30 01:23:27;;;;;;;43.53;13.60;;;;;;;10.21;100.00;101129.44;5032070;28;20037;-87
2021/12/30 01:25:55;;;;;;;40.28;13.38;;;;;;;10.14;100.00;101116.06;5032558;28;20419;-86
2021/12/30 01:28:20;;;;;;;40.35;13.07;;;;;;;10.09;100.00;101104.31;5032313;28;20021;-86
2021/12/30 01:30:47;;;;;;;44.22;12.45;;;;;;;10.16;100.00;101115.97;5032223;28;20488;-86
2021/12/30 01:33:13;;;;;;;40.28;12.88;;;;;;;10.32;100.00;101143.47;5032074;28;20032;-85
2021/12/30 01:35:38;;;;;;;45.30;12.75;;;;;;;10.28;100.00;101130.78;5032156;28;20381;-86
2021/12/30 01:38:05;;;;;;;39.15;11.82;;;;;;;10.38;100.00;101152.59;5032150;28;20107;-85
2021/12/30 01:40:32;;;;;;;41.78;11.15;;;;;;;10.27;100.00;101126.56;5032293;28;20103;-88
2021/12/30 01:42:58;;;;;;;45.00;11.70;;;;;;;10.43;100.00;101140.25;5032135;28;20044;-82
2021/12/30 01:45:23;;;;;;;46.25;13.13;;;;;;;10.41;100.00;101139.50;5032060;28;20029;-80
2021/12/30 01:47:51;;;;;;;41.90;11.07;;;;;;;10.33;100.00;101114.13;5031861;28;20128;-86
2021/12/30 01:50:18;;;;;;;41.45;10.35;;;;;;;10.32;100.00;101107.31;5032035;28;20075;-84
2021/12/30 01:52:44;;;;;;;37.60;10.27;;;;;;;10.29;100.00;101110.06;5031872;28;20033;-86
2021/12/30 01:55:11;;;;;;;42.60;10.98;;;;;;;10.53;100.00;101133.66;5032179;28;20026;-75
2021/12/30 01:57:37;;;;;;;44.20;12.50;;;;;;;10.56;100.00;101137.78;5032031;28;20029;-85
2021/12/30 02:00:05;;;;;;;48.33;11.77;;;;;;;10.42;100.00;101104.19;5032065;28;20105;-85
2021/12/30 02:02:32;;;;;;;43.45;13.60;;;;;;;10.58;100.00;101120.44;5032084;28;20026;-79
2021/12/30 02:04:57;;;;;;;38.33;11.98;;;;;;;10.68;100.00;101126.75;5034464;28;20432;-87
2021/12/30 02:07:23;;;;;;;44.15;13.15;;;;;;;10.60;100.00;101114.25;5035434;28;20030;-86
2021/12/30 02:09:49;;;;;;;47.38;13.23;;;;;;;10.74;100.00;101128.16;5035400;28;20049;-84
2021/12/30 02:12:15;;;;;;;40.38;14.85;;;;;;;10.76;100.00;101126.28;5035490;28;20047;-86
2021/12/30 02:14:40;;;;;;;45.50;14.93;;;;;;;10.75;100.00;101134.97;5035354;28;20470;-83
2021/12/30 02:17:06;;;;;;;46.20;15.57;;;;;;;10.85;100.00;101154.19;5035476;28;20034;-78
2021/12/30 02:19:32;;;;;;;41.92;14.93;;;;;;;10.87;100.00;101150.56;5035220;28;20033;-87
2021/12/30 02:21:58;;;;;;;45.90;15.30;;;;;;;10.90;100.00;101154.72;5035271;28;20017;-87
2021/12/30 02:24:23;;;;;;;47.25;15.45;;;;;;;10.94;100.00;101150.22;5035074;28;20507;-87
2021/12/30 02:26:49;;;;;;;42.60;15.30;;;;;;;10.72;100.00;101114.50;5035063;28;20496;-87
2021/12/30 02:29:14;;;;;;;42.67;14.88;;;;;;;10.84;100.00;101144.75;5035156;28;20105;-86
2021/12/30 02:31:40;;;;;;;41.05;14.93;;;;;;;10.94;100.00;101157.97;5017253;28;20477;-86
2021/12/30 02:34:05;;;;;;;35.88;15.60;;;;;;;10.93;100.00;101159.72;5035010;28;20033;-84
2021/12/30 02:36:35;;;;;;;43.25;14.02;;;;;;;10.94;100.00;101153.63;5035082;28;20559;-86
2021/12/30 02:39:05;;;;;;;38.95;14.50;;;;;;;10.94;100.00;101155.38;5034945;28;20533;-82
2021/12/30 02:41:33;;;;;;;44.42;15.75;;;;;;;10.94;100.00;101156.22;5034846;28;20025;-84
2021/12/30 02:44:01;;;;;;;40.10;14.68;;;;;;;10.95;100.00;101154.47;5033115;28;20041;-82
2021/12/30 02:46:28;;;;;;;39.95;15.07;;;;;;;10.75;100.00;101115.13;5034754;28;20037;-87
2021/12/30 02:48:55;;;;;;;40.92;14.95;;;;;;;10.66;100.00;101102.75;5034605;28;20199;-84
2021/12/30 02:51:21;;;;;;;44.03;13.82;;;;;;;10.97;100.00;101153.44;5034681;28;20464;-86
2021/12/30 02:53:47;;;;;;;36.10;14.85;;;;;;;10.98;100.00;101155.09;5034577;28;20389;-87
2021/12/30 02:56:13;;;;;;;38.03;14.05;;;;;;;10.67;100.00;101103.59;5034471;28;20026;-83
2021/12/30 02:58:39;;;;;;;40.40;14.25;;;;;;;10.94;100.00;101148.47;5034607;28;20025;-86
2021/12/30 03:01:12;;;;;;;38.03;14.70;;;;;;;10.90;100.00;101152.13;5034701;28;20492;-83
2021/12/30 03:03:38;;;;;;;39.05;12.90;;;;;;;10.82;100.00;101133.69;5034396;28;20164;-84
2021/12/30 03:06:07;;;;;;;35.25;13.20;;;;;;;10.71;100.00;101112.81;5034580;28;20079;-87
2021/12/30 03:08:32;;;;;;;36.53;13.40;;;;;;;10.98;100.00;101162.03;5034421;28;20039;-83
2021/12/30 03:10:58;;;;;;;37.42;13.30;;;;;;;10.96;100.00;101169.03;5034411;28;20377;-85
2021/12/30 03:13:31;;;;;;;36.97;13.45;;;;;;;10.72;100.00;101133.41;5034515;28;20022;-88
2021/12/30 03:16:03;;;;;;;38.85;13.05;;;;;;;10.89;100.00;101155.66;5033500;28;20071;-87
2021/12/30 03:18:29;;;;;;;37.45;13.40;;;;;;;10.97;100.00;101166.38;5034042;28;20030;-77
2021/12/30 03:20:55;;;;;;;33.50;12.38;;;;;;;10.99;100.00;101171.44;5034058;28;20029;-84
2021/12/30 03:23:20;;;;;;;35.78;11.75;;;;;;;10.98;100.00;101173.19;5033802;28;20358;-86
2021/12/30 03:25:46;;;;;;;35.85;12.30;;;;;;;10.91;100.00;101157.25;5034213;28;20029;-86
2021/12/30 03:28:11;;;;;;;30.60;12.55;;;;;;;11.01;100.00;101173.03;5034109;28;20416;-85
2021/12/30 03:30:36;;;;;;;30.23;11.20;;;;;;;10.99;100.00;101169.69;5033870;28;20034;-81
2021/12/30 03:33:02;;;;;;;27.13;11.93;;;;;;;10.99;100.00;101174.03;5034049;28;20056;-84
2021/12/30 03:35:28;;;;;;;27.77;11.38;;;;;;;10.98;100.00;101169.78;5032571;28;20077;-86
2021/12/30 03:37:53;;;;;;;27.25;12.82;;;;;;;10.99;100.00;101171.44;5033701;28;20041;-86
2021/12/30 03:40:19;;;;;;;24.77;11.05;;;;;;;10.97;100.00;101166.38;5033655;28;20029;-83
2021/12/30 03:42:44;;;;;;;25.38;10.75;;;;;;;11.00;100.00;101173.09;5033879;28;20030;-85
2021/12/30 03:45:11;;;;;;;23.52;11.32;;;;;;;11.00;100.00;101173.09;5033698;28;20469;-86
2021/12/30 03:47:41;;;;;;;28.23;10.82;;;;;;;10.93;100.00;101162.31;5033481;28;20085;-84
2021/12/30 03:50:12;;;;;;;25.30;10.48;;;;;;;10.94;100.00;101163.13;5033515;28;20084;-79
2021/12/30 03:52:38;;;;;;;21.30;10.98;;;;;;;11.00;100.00;101170.50;5032024;28;20047;-75
2021/12/30 03:55:04;;;;;;;19.80;10.02;;;;;;;11.02;100.00;101163.53;5033614;28;20037;-82
2021/12/30 03:57:29;;;;;;;18.23;9.68;;;;;;;10.94;100.00;101150.22;5033579;28;20025;-87
2021/12/30 03:59:54;;;;;;;19.15;9.70;;;;;;;11.05;100.00;101161.56;5033406;28;20037;-87
2021/12/30 04:02:20;;;;;;;19.85;9.40;;;;;;;11.08;100.00;101163.97;5033312;28;20036;-83
2021/12/30 04:04:45;;;;;;;19.05;9.52;;;;;;;10.80;100.00;101109.69;5031799;28;20150;-87
2021/12/30 04:07:10;;;;;;;18.98;9.95;;;;;;;11.10;100.00;101153.53;5033249;28;20432;-88
2021/12/30 04:09:36;;;;;;;20.70;11.77;;;;;;;11.18;100.00;101162.50;5033346;28;20492;-81
2021/12/30 04:12:03;;;;;;;20.08;11.43;;;;;;;10.97;100.00;101129.34;5033328;28;20029;-82
2021/12/30 04:14:31;;;;;;;18.88;11.00;;;;;;;11.18;100.00;101167.66;5031942;28;20473;-86
2021/12/30 04:16:56;;;;;;;20.38;11.48;;;;;;;11.24;100.00;101170.81;5033152;28;20021;-86
2021/12/30 04:19:22;;;;;;;19.45;10.57;;;;;;;11.15;100.00;101156.69;5032868;28;20372;-85
2021/12/30 04:21:47;;;;;;;22.42;12.23;;;;;;;11.28;100.00;101182.63;5032956;28;20373;-81
2021/12/30 04:24:14;;;;;;;27.73;15.57;;;;;;;11.24;100.00;101176.81;5033127;28;20025;-86
2021/12/30 04:26:39;;;;;;;29.05;15.80;;;;;;;11.26;100.00;101169.78;5032824;28;20029;-84
2021/12/30 04:29:05;;;;;;;28.85;17.15;;;;;;;11.20;100.00;101167.56;5033149;28;20029;-81
2021/12/30 04:31:31;;;;;;;31.30;18.27;;;;;;;11.37;100.00;101190.66;5032994;28;20029;-82
2021/12/30 04:33:58;;;;;;;33.67;19.95;;;;;;;11.33;100.00;101191.78;5032803;28;20053;-88
2021/12/30 04:36:23;;;;;;;34.70;21.08;;;;;;;11.37;100.00;101193.25;5032757;28;20029;-84
2021/12/30 04:38:49;;;;;;;42.55;23.35;;;;;;;11.42;100.00;101185.22;5032718;28;20029;-86
2021/12/30 04:41:14;;;;;;;38.38;23.05;;;;;;;11.38;100.00;101169.03;5032783;28;20022;-87
2021/12/30 04:43:40;;;;;;;39.97;24.45;;;;;;;11.49;100.00;101183.91;5032670;28;20031;-86
2021/12/30 04:46:05;;;;;;;46.92;26.45;;;;;;;11.44;100.00;101178.19;5032867;28;20030;-85
2021/12/30 04:48:31;;;;;;;42.45;25.30;;;;;;;11.48;100.00;101183.06;5032431;28;20126;-83
2021/12/30 04:50:56;;;;;;;45.45;26.00;;;;;;;11.53;100.00;101187.16;5032647;28;20029;-86
2021/12/30 04:53:21;;;;;;;43.05;26.70;;;;;;;11.54;100.00;101189.63;5032439;28;20021;-87
2021/12/30 04:55:48;;;;;;;43.28;26.50;;;;;;;11.43;100.00;101179.13;5032567;28;20036;-85
2021/12/30 04:58:14;;;;;;;39.15;26.38;;;;;;;11.62;100.00;101197.78;5032783;28;20385;-78
2021/12/30 05:00:41;;;;;;;40.40;24.85;;;;;;;11.44;100.00;101157.50;5015132;28;20021;-77
2021/12/30 05:03:11;;;;;;;39.25;24.67;;;;;;;11.65;100.00;101186.41;5032564;28;20132;-88
2021/12/30 05:05:39;;;;;;;38.67;24.45;;;;;;;11.65;100.00;101194.16;5031272;28;20036;-84
2021/12/30 05:08:04;;;;;;;34.30;23.45;;;;;;;11.58;100.00;101182.50;5032472;28;20026;-83
2021/12/30 05:10:30;;;;;;;35.30;22.50;;;;;;;11.69;100.00;101195.63;5032612;28;20049;-79
2021/12/30 05:12:55;;;;;;;33.83;22.23;;;;;;;11.71;100.00;101191.19;5032296;28;20025;-74
2021/12/30 05:15:21;;;;;;;31.40;20.15;;;;;;;11.71;100.00;101186.84;5031288;28;20025;-76
2021/12/30 05:17:46;;;;;;;29.27;19.67;;;;;;;11.73;100.00;101195.34;5032476;28;20022;-86
2021/12/30 05:20:12;;;;;;;28.75;19.23;;;;;;;11.73;100.00;101200.53;5032420;28;20485;-81
2021/12/30 05:22:38;;;;;;;26.52;18.00;;;;;;;11.78;100.00;101208.81;5032419;28;20112;-87
2021/12/30 05:25:04;;;;;;;26.35;17.00;;;;;;;11.75;100.00;101198.66;5032908;28;20025;-89
2021/12/30 05:27:30;;;;;;;23.13;16.88;;;;;;;11.68;100.00;101183.59;5032589;28;20036;-80
2021/12/30 05:29:55;;;;;;;22.88;16.63;;;;;;;11.85;100.00;101213.66;5032945;28;20022;-84
2021/12/30 05:32:20;;;;;;;22.00;15.70;;;;;;;11.73;100.00;101202.28;5033062;28;20030;-89
2021/12/30 05:34:46;;;;;;;23.83;17.45;;;;;;;11.90;100.00;101225.41;5033288;28;20087;-84
2021/12/30 05:37:11;;;;;;;25.67;16.58;;;;;;;11.90;100.00;101219.38;5032440;28;20034;-86
2021/12/30 05:39:40;;;;;;;22.25;16.10;;;;;;;11.87;100.00;101209.22;5035252;28;20026;-87
2021/12/30 05:42:06;;;;;;;21.83;15.90;;;;;;;12.01;100.00;101229.91;5037172;28;20079;-88
2021/12/30 05:44:31;;;;;;;19.02;15.20;;;;;;;12.06;100.00;101239.03;5036546;28;20029;-88
2021/12/30 05:46:56;;;;;;;18.45;15.45;;;;;;;12.04;100.00;101245.22;5036112;28;20295;-87
2021/12/30 05:49:23;;;;;;;18.48;14.90;;;;;;;12.11;100.00;101243.09;5037412;28;20029;-88
2021/12/30 05:51:48;;;;;;;20.00;15.93;;;;;;;12.12;100.00;101249.94;5036450;28;20021;-87
2021/12/30 05:54:14;;;;;;;20.73;14.85;;;;;;;12.13;100.00;101254.19;5034723;28;20050;-86
2021/12/30 05:56:39;;;;;;;17.77;14.40;;;;;;;12.02;100.00;101237.56;5036521;28;20030;-81
2021/12/30 05:59:05;;;;;;;16.73;12.68;;;;;;;12.03;100.00;101238.41;5035976;28;20026;-86
2021/12/30 06:01:30;;;;;;;14.75;12.23;;;;;;;12.11;100.00;101249.09;5036054;28;20045;-87
2021/12/30 06:03:55;;;;;;;14.95;12.45;;;;;;;12.10;100.00;101244.03;5036063;28;20111;-87
2021/12/30 06:06:21;;;;;;;13.10;11.05;;;;;;;12.18;100.00;101242.59;5036167;28;20021;-86
2021/12/30 06:08:46;;;;;;;13.15;10.80;;;;;;;12.17;100.00;101228.00;5018557;28;20596;-87
2021/12/30 06:11:11;;;;;;;11.57;9.30;;;;;;;12.13;100.00;101229.13;5034535;28;20059;-87
2021/12/30 06:13:37;;;;;;;13.20;9.00;;;;;;;12.14;100.00;101232.53;5035829;28;20034;-88
2021/12/30 06:16:02;;;;;;;10.35;8.20;;;;;;;12.03;100.00;101222.88;5035638;28;20354;-88
2021/12/30 06:18:28;;;;;;;8.40;6.47;;;;;;;12.21;100.00;101247.59;5036124;28;20037;-88
2021/12/30 06:20:53;;;;;;;9.40;6.95;;;;;;;12.21;100.00;101247.59;5034149;28;20377;-88
2021/12/30 06:23:18;;;;;;;8.68;6.05;;;;;;;12.19;100.00;101253.78;5033476;28;20030;-84
2021/12/30 06:25:44;;;;;;;9.52;6.15;;;;;;;12.10;100.00;101234.50;5035485;28;20533;-85
2021/12/30 06:28:09;;;;;;;10.25;6.78;;;;;;;12.13;100.00;101239.47;5035680;28;20028;-86
2021/12/30 06:30:35;;;;;;;9.02;6.55;;;;;;;12.17;100.00;101251.28;5035533;28;20539;-85
2021/12/30 06:33:00;;;;;;;7.72;5.82;;;;;;;12.13;100.00;101241.25;5035951;28;20230;-86
2021/12/30 06:35:31;;;;;;;7.53;5.70;;;;;;;12.19;100.00;101244.28;5035522;28;20021;-87
2021/12/30 06:37:57;;;;;;;;;;;;;;;12.21;100.00;101246.78;5035741;28;20029;-88
2021/12/30 06:40:22;;;;;;;9.43;6.82;;;;;;;12.09;100.00;101230.22;5034985;28;19970;-83
2021/12/30 06:42:48;;;;;;;10.60;7.97;;;;;;;12.19;100.00;101249.47;5033788;28;20539;-88
2021/12/30 06:45:13;;;;;;;11.18;8.02;;;;;;;12.22;100.00;101259.63;5035226;28;20104;-80
2021/12/30 06:47:38;;;;;;;12.43;9.48;;;;;;;12.23;100.00;101256.09;5033682;28;20468;-85
2021/12/30 06:50:04;;;;;;;12.73;10.25;;;;;;;12.25;100.00;101264.59;5035238;28;20040;-85
2021/12/30 06:52:30;;;;;;;12.57;10.32;;;;;;;12.28;100.00;101263.56;5034917;28;20025;-86
2021/12/30 06:54:56;;;;;;;13.82;10.90;;;;;;;12.28;100.00;101269.56;5034673;28;20489;-76
2021/12/30 06:57:21;;;;;;;13.35;11.20;;;;;;;12.13;100.00;101254.19;5034740;28;20073;-87
2021/12/30 06:59:47;;;;;;;15.25;11.40;;;;;;;12.20;100.00;101264.06;5034831;28;20032;-88
2021/12/30 07:02:13;;;;;;;17.05;12.25;;;;;;;12.29;100.00;101284.19;5017033;28;20108;-85
2021/12/30 07:04:39;;;;;;;15.75;12.50;;;;;;;12.30;100.00;101296.22;5034772;28;20040;-76
2021/12/30 07:07:04;;;;;;;16.05;12.70;;;;;;;12.16;100.00;101262.56;5034578;28;20473;-88
2021/12/30 07:09:30;;;;;;;15.90;11.73;;;;;;;12.31;100.00;101299.63;5034647;28;20021;-80
2021/12/30 07:11:56;;;;;;;16.63;12.18;;;;;;;12.33;100.00;101297.78;5034644;28;20026;-84
2021/12/30 07:14:22;;;;;;;15.32;11.63;;;;;;;12.34;100.00;101294.25;5034426;28;20067;-89
2021/12/30 07:16:47;;;;;;;16.23;11.18;;;;;;;12.10;100.00;101255.22;5034668;28;20044;-83
2021/12/30 07:19:13;;;;;;;13.90;10.35;;;;;;;12.36;100.00;101297.56;5034085;28;20025;-88
2021/12/30 07:21:39;;;;;;;15.13;10.48;;;;;;;12.32;100.00;101299.53;5034178;28;20032;-78
2021/12/30 07:24:06;;;;;;;14.15;10.15;;;;;;;12.09;100.00;101268.22;5033858;28;20063;-89
2021/12/30 07:26:31;;;;;;;14.73;11.07;;;;;;;12.35;100.00;101308.88;5034219;28;20025;-84
2021/12/30 07:28:56;;;;;;;15.95;11.32;;;;;;;12.34;100.00;101313.22;5034093;28;20033;-88
2021/12/30 07:31:22;;;;;;;13.55;10.00;;;;;;;12.22;100.00;101290.69;5034075;28;20033;-87
2021/12/30 07:33:47;;;;;;;15.18;9.70;;;;;;;12.32;100.00;101312.50;5034227;28;20048;-87
2021/12/30 07:36:13;;;;;;;16.13;11.02;;;;;;;12.27;100.00;101309.34;5015609;28;20428;-83
2021/12/30 07:38:38;;;;;;;15.85;11.45;;;;;;;12.37;100.00;101319.97;5034020;28;20057;-87
2021/12/30 07:41:04;;;;;;;16.63;12.18;;;;;;;12.31;100.00;101313.41;5033776;28;20040;-85
2021/12/30 07:43:30;;;;;;;15.98;10.95;;;;;;;12.26;100.00;101296.50;5033554;28;20469;-88
2021/12/30 07:45:56;;;;;;;14.07;10.85;;;;;;;12.35;100.00;101322.66;5033793;28;20105;-84
2021/12/30 07:48:21;;;;;;;18.25;11.68;;;;;;;12.28;100.00;101310.16;5034348;28;20128;-83
2021/12/30 07:50:47;;;;;;;16.75;12.10;;;;;;;12.33;100.00;101318.50;5033639;28;20054;-85
2021/12/30 07:53:12;;;;;;;17.33;11.48;;;;;;;12.35;100.00;101330.41;5033479;28;20025;-89
2021/12/30 07:55:37;;;;;;;16.88;12.52;;;;;;;12.40;100.00;101340.50;5033774;28;20028;-90
2021/12/30 07:58:03;;;;;;;18.13;12.48;;;;;;;12.32;100.00;101320.25;5033570;28;20044;-89
2021/12/30 08:00:28;;;;;;;15.90;12.45;;;;;;;12.30;100.00;101313.53;5015785;28;20052;-82
2021/12/30 08:02:54;;;;;;;18.35;13.88;;;;;;;12.41;100.00;101330.97;5032985;28;20025;-90
2021/12/30 08:05:20;;;;;;;17.00;13.30;;;;;;;12.04;100.00;101266.75;5033377;28;20033;-92
2021/12/30 08:07:48;;;;;;;18.27;13.02;;;;;;;12.34;100.00;101339.13;5033160;28;20021;-85
2021/12/30 08:10:18;;;;;;;18.08;13.18;;;;;;;12.31;100.00;101334.13;5033096;28;20474;-90
2021/12/30 08:12:45;;;;;;;17.50;12.80;;;;;;;12.26;100.00;101335.34;5033171;28;20071;-81
2021/12/30 08:15:11;;;;;;;18.88;14.38;;;;;;;12.22;100.00;101345.06;5033045;28;20022;-85
2021/12/30 08:17:38;;;;;;;18.13;14.13;;;;;;;12.19;100.00;101360.78;5033306;28;20025;-91
2021/12/30 08:20:06;;;;;;;20.60;14.75;;;;;;;12.22;100.00;101363.19;5033198;28;20024;-89
2021/12/30 08:22:31;;;;;;;20.98;16.25;;;;;;;12.17;100.00;101349.69;5033090;28;20036;-86
2021/12/30 08:24:57;;;;;;;20.27;15.25;;;;;;;12.34;100.00;101369.38;5032960;28;20025;-90
2021/12/30 08:27:24;;;;;;;21.48;16.48;;;;;;;12.29;100.00;101361.03;5032902;28;20025;-85
2021/12/30 08:29:50;;;;;;;18.65;14.90;;;;;;;12.20;100.00;101328.78;5015284;28;20025;-87
2021/12/30 08:32:16;;;;;;;21.45;15.43;;;;;;;12.35;100.00;101352.91;5033110;28;20025;-93
2021/12/30 08:34:43;;;;;;;18.33;15.23;;;;;;;12.46;100.00;101353.06;5033040;28;20092;-82
2021/12/30 08:37:11;;;;;;;20.58;16.35;;;;;;;12.51;100.00;101363.97;5033529;28;20037;-86
2021/12/30 08:39:37;;;;;;;21.27;14.98;;;;;;;12.45;100.00;101353.97;5033236;28;20449;-87
2021/12/30 08:42:04;;;;;;;19.65;15.02;;;;;;;12.56;100.00;101377.47;5032964;28;20049;-89
2021/12/30 08:44:29;;;;;;;19.05;13.93;;;;;;;12.58;100.00;101379.94;5032885;28;20037;-91
2021/12/30 08:46:55;;;;;;;17.80;12.50;;;;;;;12.48;100.00;101355.53;5032584;28;20042;-91
2021/12/30 08:49:21;;;;;;;17.15;12.80;;;;;;;12.59;100.00;101379.06;5032725;28;20051;-89
2021/12/30 08:51:46;;;;;;;14.65;11.05;;;;;;;12.62;100.00;101384.03;5032740;28;20057;-89
2021/12/30 08:54:11;;;;;;;14.60;11.23;;;;;;;12.58;100.00;101380.78;5032560;28;20068;-88
2021/12/30 08:56:36;;;;;;;13.15;10.10;;;;;;;12.64;100.00;101397.72;5032925;28;20060;-87
2021/12/30 08:59:02;;;;;;;14.43;9.73;;;;;;;12.66;100.00;101402.78;5032745;28;20029;-93
2021/12/30 09:01:27;;;;;;;13.15;9.25;;;;;;;12.69;100.00;101406.03;5032814;28;20033;-82
2021/12/30 09:03:53;;;;;;;12.98;8.95;;;;;;;12.71;100.00;101413.72;5032506;28;20079;-82
2021/12/30 09:06:19;;;;;;;14.13;9.68;;;;;;;12.75;100.00;101399.63;5032581;28;20184;-84
2021/12/30 09:08:44;;;;;;;12.55;8.02;;;;;;;12.69;100.00;101394.84;5032678;28;20049;-91
2021/12/30 09:11:09;;;;;;;11.32;7.97;;;;;;;12.77;100.00;101396.00;5033201;28;20029;-84
2021/12/30 09:13:38;;;;;;;12.10;7.55;;;;;;;12.71;100.00;101382.63;5033179;28;20029;-88
2021/12/30 09:16:04;;;;;;;14.88;8.13;;;;;;;12.83;100.00;101410.34;5036675;28;20026;-89
2021/12/30 09:18:29;;;;;;;11.63;8.13;;;;;;;12.90;100.00;101409.88;5036800;28;20079;-86
2021/12/30 09:20:55;;;;;;;11.80;7.22;;;;;;;12.71;100.00;101378.28;5036857;28;20025;-87
2021/12/30 09:23:20;;;;;;;12.23;7.65;;;;;;;12.96;100.00;101415.59;5036516;28;20029;-87
2021/12/30 09:25:46;;;;;;;11.73;8.23;;;;;;;12.61;100.00;101366.81;5036297;28;20104;-83
2021/12/30 09:28:12;;;;;;;14.00;8.60;;;;;;;12.92;100.00;101420.13;5036197;28;20496;-83
2021/12/30 09:30:39;;;;;;;13.27;8.05;;;;;;;12.85;100.00;101398.94;5036969;28;20025;-87
2021/12/30 09:33:05;;;;;;;10.05;7.85;;;;;;;13.04;99.69;101423.72;5036461;28;20025;-89
2021/12/30 09:35:31;;;;;;;12.32;7.78;;;;;;;13.09;99.45;101432.03;5036180;28;20041;-84
2021/12/30 09:37:57;;;;;;;13.77;7.25;;;;;;;13.16;98.84;101431.53;5036196;28;20032;-83
2021/12/30 09:40:26;;;;;;;14.40;7.88;;;;;;;13.15;98.43;101411.72;5034718;28;20017;-88
2021/12/30 09:43:00;;;;;;;14.82;6.68;;;;;;;13.26;97.94;101428.38;5034768;28;20045;-80
2021/12/30 09:45:26;;;;;;;13.02;7.10;;;;;;;13.10;97.96;101406.00;5035811;28;20041;-79
2021/12/30 09:47:56;;;;;;;14.40;6.95;;;;;;;13.02;97.09;101407.44;5036009;28;20053;-81
2021/12/30 09:50:26;;;;;;;13.48;6.63;;;;;;;13.29;97.06;101447.19;5036103;28;20045;-81
2021/12/30 09:52:51;;;;;;;14.15;6.82;;;;;;;13.07;96.18;101407.94;5036255;28;20038;-80
2021/12/30 09:55:17;;;;;;;16.17;5.78;;;;;;;13.15;96.18;101429.03;5035811;28;20431;-80
2021/12/30 09:57:43;;;;;;;15.55;5.65;;;;;;;13.21;96.08;101444.25;5035725;28;20057;-80
2021/12/30 10:00:11;;;;;;;12.40;5.95;;;;;;;13.26;95.97;101449.13;5035826;28;20063;-84
2021/12/30 10:02:37;;;;;;;14.32;6.07;;;;;;;13.05;95.23;101408.06;5035791;28;20037;-87
2021/12/30 10:05:11;;;;;;;13.88;5.88;;;;;;;13.28;95.42;101450.72;5035680;28;20025;-85
2021/12/30 10:07:39;;;;;;;15.38;6.00;;;;;;;13.26;95.22;101439.59;5035571;28;20033;-86
2021/12/30 10:10:25;;;;;;;12.23;5.60;;;;;;;13.28;95.13;101440.34;5035341;28;20017;-87
2021/12/30 10:12:50;;;;;;;10.93;5.55;;;;;;;13.31;94.79;101447.09;5035497;28;20022;-89
2021/12/30 10:15:19;;;;;;;14.45;5.55;;;;;;;13.10;95.05;101418.97;5035730;28;20025;-83
2021/12/30 10:17:53;;;;;;;13.35;5.22;;;;;;;13.36;94.80;101437.22;5035310;28;20083;-86
2021/12/30 10:20:27;;;;;;;13.02;5.10;;;;;;;13.46;94.20;101449.50;5035669;28;20025;-82
2021/12/30 10:23:06;;;;;;;13.52;5.38;;;;;;;13.44;93.69;101427.19;5035608;28;20021;-85
2021/12/30 10:25:35;;;;;;;17.10;5.57;;;;;;;13.37;92.81;101425.91;5034479;28;20439;-82
2021/12/30 10:28:19;;;;;;;16.25;5.88;;;;;;;13.53;93.79;101467.28;5035163;28;20025;-81
2021/12/30 10:30:45;;;;;;;12.20;5.72;;;;;;;13.33;93.10;101437.44;5035290;28;20030;-80
2021/12/30 10:33:26;;;;;;;14.90;6.40;;;;;;;13.43;93.20;101462.69;5035303;28;20033;-79
2021/12/30 10:35:52;;;;;;;16.58;6.75;;;;;;;12.79;93.24;101357.88;5034929;28;20025;-81
2021/12/30 10:38:18;;;;;;;13.02;6.10;;;;;;;13.35;93.47;101451.97;5034871;28;20021;-83
2021/12/30 10:40:47;;;;;;;14.05;5.82;;;;;;;13.18;93.06;101418.50;5034970;28;20044;-82
2021/12/30 10:43:30;;;;;;;16.25;5.93;;;;;;;13.32;93.66;101456.53;5034951;28;20083;-80
2021/12/30 10:46:07;;;;;;;14.50;6.10;;;;;;;13.32;94.05;101459.13;5034752;28;20151;-82
2021/12/30 10:48:43;;;;;;;14.90;5.72;;;;;;;13.32;93.69;101462.53;5034675;28;20099;-82
2021/12/30 10:51:17;;;;;;;15.50;6.25;;;;;;;13.34;93.31;101460.69;5034854;28;20401;-83
2021/12/30 10:53:43;;;;;;;17.83;6.50;;;;;;;12.90;92.64;101386.53;5033348;28;20040;-86
2021/12/30 10:56:48;;;;;;;15.02;6.20;;;;;;;13.41;93.68;101467.13;5034575;28;20481;-86
2021/12/30 10:59:24;;;;;;;13.38;5.32;;;;;;;13.12;92.78;101404.16;4957461;28;20043;-87
2021/12/30 11:01:55;;;;;;;15.05;5.75;;;;;;;13.44;92.44;101437.56;4973704;28;20042;-84
2021/12/30 11:04:21;;;;;;;15.27;5.07;;;;;;;13.20;91.58;101393.31;4973507;28;20055;-87